createdAt,value
2018-05-08T00:00:36.536Z,18.96
2018-05-08T00:01:36.569Z,18.89
2018-05-08T00:02:36.599Z,18.91
2018-05-08T00:03:36.620Z,18.94
2018-05-08T00:04:36.649Z,18.89
2018-05-08T00:05:36.678Z,18.87
2018-05-08T00:06:36.706Z,18.87
2018-05-08T00:07:36.737Z,18.72
2018-05-08T00:08:36.764Z,18.69
2018-05-08T00:09:36.785Z,18.59
2018-05-08T00:10:36.819Z,18.64
2018-05-08T00:11:36.844Z,18.51
2018-05-08T00:12:36.874Z,18.47
2018-05-08T00:13:36.900Z,18.64
2018-05-08T00:14:36.929Z,18.68
2018-05-08T00:15:36.953Z,18.57
2018-05-08T00:16:36.984Z,18.60
2018-05-08T00:17:37.013Z,18.68
2018-05-08T00:18:37.041Z,18.57
2018-05-08T00:19:37.073Z,18.66
2018-05-08T00:20:37.101Z,18.60
2018-05-08T00:21:37.123Z,18.56
2018-05-08T00:22:37.149Z,18.46
2018-05-08T00:23:37.183Z,18.53
2018-05-08T00:24:37.204Z,18.56
2018-05-08T00:25:37.236Z,18.50
2018-05-08T00:26:37.263Z,18.49
2018-05-08T00:27:37.294Z,18.51
2018-05-08T00:28:37.319Z,18.51
2018-05-08T00:29:37.343Z,18.50
2018-05-08T00:30:37.377Z,18.44
2018-05-08T00:31:37.405Z,18.42
2018-05-08T00:32:37.427Z,18.32
2018-05-08T00:33:37.459Z,18.31
2018-05-08T00:34:37.483Z,18.38
2018-05-08T00:35:37.516Z,18.38
2018-05-08T00:36:37.540Z,18.29
2018-05-08T00:37:37.604Z,18.32
2018-05-08T00:38:37.599Z,18.34
2018-05-08T00:39:37.627Z,18.29
2018-05-08T00:40:37.654Z,18.29
2018-05-08T00:41:37.678Z,18.29
2018-05-08T00:42:37.708Z,18.17
2018-05-08T00:43:37.732Z,18.20
2018-05-08T00:44:37.766Z,18.19
2018-05-08T00:45:37.794Z,18.26
2018-05-08T00:46:37.823Z,18.13
2018-05-08T00:47:37.854Z,18.16
2018-05-08T00:48:37.876Z,18.17
2018-05-08T00:49:37.902Z,18.16
2018-05-08T00:50:37.932Z,18.17
2018-05-08T00:51:37.954Z,18.21
2018-05-08T00:52:37.983Z,18.23
2018-05-08T00:53:38.014Z,18.11
2018-05-08T00:54:38.041Z,18.13
2018-05-08T00:55:38.072Z,18.14
2018-05-08T00:56:38.096Z,18.16
2018-05-08T00:57:38.121Z,18.19
2018-05-08T00:58:38.152Z,18.16
2018-05-08T00:59:38.178Z,18.01
2018-05-08T01:00:38.206Z,18.02
2018-05-08T01:01:38.232Z,18.01
2018-05-08T01:02:38.265Z,18.07
2018-05-08T01:03:38.286Z,18.01
2018-05-08T01:04:38.312Z,17.99
2018-05-08T01:05:38.345Z,18.02
2018-05-08T01:06:38.369Z,18.05
2018-05-08T01:07:38.397Z,18.05
2018-05-08T01:08:38.426Z,18.05
2018-05-08T01:09:38.446Z,17.99
2018-05-08T01:10:38.477Z,18.09
2018-05-08T01:11:38.583Z,17.96
2018-05-08T01:12:38.536Z,17.99
2018-05-08T01:13:38.561Z,17.99
2018-05-08T01:14:38.592Z,17.92
2018-05-08T01:15:38.617Z,17.95
2018-05-08T01:16:38.649Z,17.98
2018-05-08T01:17:38.667Z,17.92
2018-05-08T01:18:38.701Z,17.92
2018-05-08T01:19:38.721Z,17.81
2018-05-08T01:20:38.757Z,17.91
2018-05-08T01:21:38.777Z,17.91
2018-05-08T01:22:38.808Z,17.77
2018-05-08T01:23:38.831Z,17.80
2018-05-08T01:24:38.860Z,17.73
2018-05-08T01:25:38.885Z,17.73
2018-05-08T01:26:38.911Z,17.79
2018-05-08T01:27:38.964Z,17.71
2018-05-08T01:28:38.966Z,17.65
2018-05-08T01:29:39.000Z,17.62
2018-05-08T01:30:39.025Z,17.71
2018-05-08T01:31:39.119Z,17.73
2018-05-08T01:32:39.080Z,17.63
2018-05-08T01:33:39.110Z,17.63
2018-05-08T01:34:39.130Z,17.71
2018-05-08T01:35:39.158Z,17.63
2018-05-08T01:36:39.185Z,17.63
2018-05-08T01:37:39.220Z,17.65
2018-05-08T01:38:39.241Z,17.65
2018-05-08T01:39:39.270Z,17.62
2018-05-08T01:40:39.295Z,17.63
2018-05-08T01:41:39.330Z,17.57
2018-05-08T01:42:39.353Z,17.60
2018-05-08T01:43:39.375Z,17.54
2018-05-08T01:44:39.408Z,17.55
2018-05-08T01:45:39.430Z,17.55
2018-05-08T01:46:39.462Z,17.51
2018-05-08T01:47:39.486Z,17.63
2018-05-08T01:48:39.510Z,17.53
2018-05-08T01:49:39.542Z,17.46
2018-05-08T01:50:39.571Z,17.51
2018-05-08T01:51:39.595Z,17.45
2018-05-08T01:52:39.619Z,17.53
2018-05-08T01:53:39.645Z,17.47
2018-05-08T01:54:39.676Z,17.45
2018-05-08T01:55:39.699Z,17.42
2018-05-08T01:56:39.733Z,17.35
2018-05-08T01:57:39.755Z,17.30
2018-05-08T01:58:39.782Z,17.24
2018-05-08T01:59:39.809Z,17.24
2018-05-08T02:00:39.840Z,17.21
2018-05-08T02:01:39.866Z,17.24
2018-05-08T02:02:39.898Z,17.20
2018-05-08T02:03:39.923Z,17.12
2018-05-08T02:04:39.947Z,17.21
2018-05-08T02:05:39.979Z,17.22
2018-05-08T02:06:40.001Z,17.21
2018-05-08T02:07:40.030Z,17.21
2018-05-08T02:08:40.058Z,17.27
2018-05-08T02:09:40.085Z,17.25
2018-05-08T02:10:40.119Z,17.22
2018-05-08T02:11:40.139Z,17.20
2018-05-08T02:12:40.162Z,17.17
2018-05-08T02:13:40.195Z,17.24
2018-05-08T02:14:40.222Z,17.17
2018-05-08T02:15:40.245Z,17.24
2018-05-08T02:16:40.268Z,17.21
2018-05-08T02:17:40.302Z,17.20
2018-05-08T02:18:40.323Z,17.18
2018-05-08T02:19:40.350Z,17.12
2018-05-08T02:20:40.377Z,17.07
2018-05-08T02:21:40.411Z,17.15
2018-05-08T02:22:40.432Z,17.15
2018-05-08T02:23:40.459Z,17.27
2018-05-08T02:24:40.489Z,17.27
2018-05-08T02:25:40.515Z,17.17
2018-05-08T02:26:40.541Z,17.10
2018-05-08T02:27:40.568Z,17.09
2018-05-08T02:28:40.594Z,17.05
2018-05-08T02:29:40.707Z,17.00
2018-05-08T02:30:40.648Z,17.02
2018-05-08T02:31:40.674Z,17.09
2018-05-08T02:32:40.705Z,17.03
2018-05-08T02:33:40.729Z,16.98
2018-05-08T02:34:40.762Z,17.00
2018-05-08T02:35:40.787Z,16.91
2018-05-08T02:36:40.807Z,16.98
2018-05-08T02:37:40.842Z,16.92
2018-05-08T02:38:40.871Z,16.96
2018-05-08T02:39:40.898Z,16.95
2018-05-08T02:40:40.918Z,16.92
2018-05-08T02:41:40.945Z,16.90
2018-05-08T02:42:40.979Z,16.84
2018-05-08T02:43:41.002Z,16.80
2018-05-08T02:44:41.032Z,16.75
2018-05-08T02:45:41.056Z,16.73
2018-05-08T02:46:41.082Z,16.75
2018-05-08T02:47:41.117Z,16.72
2018-05-08T02:48:41.137Z,16.77
2018-05-08T02:49:41.158Z,16.72
2018-05-08T02:50:41.189Z,16.69
2018-05-08T02:51:41.213Z,16.66
2018-05-08T02:52:41.255Z,16.72
2018-05-08T02:53:41.267Z,16.73
2018-05-08T02:54:41.299Z,16.75
2018-05-08T02:55:41.325Z,16.78
2018-05-08T02:56:41.364Z,16.70
2018-05-08T02:57:41.374Z,16.69
2018-05-08T02:58:41.403Z,16.73
2018-05-08T02:59:41.431Z,16.70
2018-05-08T03:00:41.457Z,16.77
2018-05-08T03:01:41.486Z,16.81
2018-05-08T03:02:41.514Z,16.92
2018-05-08T03:03:41.535Z,16.81
2018-05-08T03:04:41.567Z,16.69
2018-05-08T03:05:41.600Z,16.65
2018-05-08T03:06:41.616Z,16.63
2018-05-08T03:07:41.642Z,16.62
2018-05-08T03:08:41.676Z,16.60
2018-05-08T03:09:41.698Z,16.63
2018-05-08T03:10:41.722Z,16.54
2018-05-08T03:11:41.748Z,16.63
2018-05-08T03:12:41.778Z,16.50
2018-05-08T03:13:41.803Z,16.45
2018-05-08T03:14:41.833Z,16.60
2018-05-08T03:15:41.856Z,16.52
2018-05-08T03:16:41.939Z,16.52
2018-05-08T03:17:41.915Z,16.45
2018-05-08T03:18:41.936Z,16.52
2018-05-08T03:19:41.971Z,16.50
2018-05-08T03:20:41.998Z,16.54
2018-05-08T03:21:42.015Z,16.51
2018-05-08T03:22:42.049Z,16.51
2018-05-08T03:23:42.074Z,16.48
2018-05-08T03:24:42.105Z,16.48
2018-05-08T03:25:42.130Z,16.44
2018-05-08T03:26:42.150Z,16.48
2018-05-08T03:27:42.185Z,16.34
2018-05-08T03:28:42.204Z,16.34
2018-05-08T03:29:42.229Z,16.47
2018-05-08T03:30:42.255Z,16.44
2018-05-08T03:31:42.292Z,16.42
2018-05-08T03:32:42.340Z,16.27
2018-05-08T03:33:42.334Z,16.33
2018-05-08T03:34:42.365Z,16.34
2018-05-08T03:35:42.394Z,16.37
2018-05-08T03:36:42.419Z,16.33
2018-05-08T03:37:42.449Z,16.36
2018-05-08T03:38:42.479Z,16.33
2018-05-08T03:39:42.499Z,16.30
2018-05-08T03:40:42.534Z,16.45
2018-05-08T03:41:42.551Z,16.40
2018-05-08T03:42:42.585Z,16.45
2018-05-08T03:43:42.609Z,16.42
2018-05-08T03:44:42.630Z,16.51
2018-05-08T03:45:42.654Z,16.41
2018-05-08T03:46:42.687Z,16.44
2018-05-08T03:47:42.709Z,16.36
2018-05-08T03:48:42.739Z,16.47
2018-05-08T03:49:42.768Z,16.33
2018-05-08T03:50:42.790Z,16.34
2018-05-08T03:51:42.818Z,16.32
2018-05-08T03:52:42.840Z,16.27
2018-05-08T03:53:42.878Z,16.30
2018-05-08T03:54:42.899Z,16.29
2018-05-08T03:55:42.927Z,16.29
2018-05-08T03:56:42.953Z,16.37
2018-05-08T03:57:42.983Z,16.33
2018-05-08T03:58:43.008Z,16.34
2018-05-08T03:59:43.028Z,16.33
2018-05-08T04:00:43.057Z,16.34
2018-05-08T04:01:43.083Z,16.25
2018-05-08T04:02:43.106Z,16.23
2018-05-08T04:03:43.134Z,16.23
2018-05-08T04:04:43.162Z,16.23
2018-05-08T04:05:43.193Z,16.29
2018-05-08T04:06:43.218Z,16.25
2018-05-08T04:07:43.248Z,16.36
2018-05-08T04:08:43.275Z,16.29
2018-05-08T04:09:43.301Z,16.27
2018-05-08T04:10:43.322Z,16.22
2018-05-08T04:11:43.353Z,16.13
2018-05-08T04:12:43.377Z,16.10
2018-05-08T04:13:43.408Z,16.11
2018-05-08T04:14:43.436Z,16.30
2018-05-08T04:15:43.458Z,16.30
2018-05-08T04:16:43.483Z,16.29
2018-05-08T04:17:43.505Z,16.32
2018-05-08T04:18:43.533Z,16.40
2018-05-08T04:19:43.562Z,16.40
2018-05-08T04:20:43.584Z,16.45
2018-05-08T04:21:43.614Z,16.41
2018-05-08T04:22:43.638Z,16.34
2018-05-08T04:23:43.669Z,16.52
2018-05-08T04:24:43.697Z,16.44
2018-05-08T04:25:43.720Z,16.44
2018-05-08T04:26:43.748Z,16.54
2018-05-08T04:27:43.772Z,16.52
2018-05-08T04:28:43.798Z,16.47
2018-05-08T04:29:43.826Z,16.50
2018-05-08T04:30:43.858Z,16.51
2018-05-08T04:31:43.882Z,16.47
2018-05-08T04:32:43.906Z,16.51
2018-05-08T04:33:43.937Z,16.51
2018-05-08T04:34:43.958Z,16.52
2018-05-08T04:35:43.993Z,16.52
2018-05-08T04:36:44.062Z,16.48
2018-05-08T04:37:44.039Z,16.51
2018-05-08T04:38:44.062Z,16.48
2018-05-08T04:39:44.088Z,16.42
2018-05-08T04:40:44.118Z,16.52
2018-05-08T04:41:44.154Z,16.55
2018-05-08T04:42:44.173Z,16.47
2018-05-08T04:43:44.201Z,16.47
2018-05-08T04:44:44.223Z,16.51
2018-05-08T04:45:44.248Z,16.54
2018-05-08T04:46:44.278Z,16.62
2018-05-08T04:47:44.305Z,16.67
2018-05-08T04:48:44.332Z,16.63
2018-05-08T04:49:44.361Z,16.66
2018-05-08T04:50:44.382Z,16.62
2018-05-08T04:51:44.413Z,16.66
2018-05-08T04:52:44.441Z,16.70
2018-05-08T04:53:44.461Z,16.72
2018-05-08T04:54:44.486Z,16.63
2018-05-08T04:55:44.519Z,16.72
2018-05-08T04:56:44.546Z,16.62
2018-05-08T04:57:44.572Z,16.77
2018-05-08T04:58:44.597Z,16.65
2018-05-08T04:59:44.622Z,16.65
2018-05-08T05:00:44.652Z,16.66
2018-05-08T05:01:44.677Z,16.80
2018-05-08T05:02:44.748Z,16.81
2018-05-08T05:03:44.735Z,16.72
2018-05-08T05:04:44.783Z,16.75
2018-05-08T05:05:44.795Z,16.75
2018-05-08T05:06:44.810Z,16.78
2018-05-08T05:07:44.837Z,16.90
2018-05-08T05:08:44.865Z,16.82
2018-05-08T05:09:44.891Z,16.90
2018-05-08T05:10:44.917Z,16.90
2018-05-08T05:11:44.942Z,16.88
2018-05-08T05:12:44.967Z,16.90
2018-05-08T05:13:44.995Z,16.92
2018-05-08T05:14:45.021Z,16.92
2018-05-08T05:15:45.051Z,16.96
2018-05-08T05:16:45.117Z,16.88
2018-05-08T05:17:45.103Z,17.00
2018-05-08T05:18:45.131Z,16.99
2018-05-08T05:19:45.160Z,16.98
2018-05-08T05:20:45.184Z,16.88
2018-05-08T05:21:45.210Z,16.96
2018-05-08T05:22:45.235Z,16.96
2018-05-08T05:23:45.263Z,17.00
2018-05-08T05:24:45.292Z,16.99
2018-05-08T05:25:45.316Z,17.05
2018-05-08T05:26:45.344Z,17.09
2018-05-08T05:27:45.370Z,17.07
2018-05-08T05:28:45.396Z,17.10
2018-05-08T05:29:45.420Z,17.12
2018-05-08T05:30:45.454Z,17.18
2018-05-08T05:31:45.476Z,17.18
2018-05-08T05:32:45.503Z,17.12
2018-05-08T05:33:45.530Z,17.25
2018-05-08T05:34:45.559Z,17.25
2018-05-08T05:35:45.590Z,17.27
2018-05-08T05:36:45.622Z,17.20
2018-05-08T05:37:45.636Z,17.20
2018-05-08T05:38:45.663Z,17.27
2018-05-08T05:39:45.705Z,17.22
2018-05-08T05:40:45.725Z,17.24
2018-05-08T05:41:45.743Z,17.28
2018-05-08T05:42:45.770Z,17.30
2018-05-08T05:43:45.795Z,17.32
2018-05-08T05:44:45.825Z,17.35
2018-05-08T05:45:45.850Z,17.28
2018-05-08T05:46:45.875Z,17.32
2018-05-08T05:47:45.916Z,17.38
2018-05-08T05:48:45.933Z,17.36
2018-05-08T05:49:45.957Z,17.38
2018-05-08T05:50:45.986Z,17.49
2018-05-08T05:51:46.011Z,17.47
2018-05-08T05:52:46.094Z,17.43
2018-05-08T05:53:46.069Z,17.53
2018-05-08T05:54:46.095Z,17.51
2018-05-08T05:55:46.124Z,17.55
2018-05-08T05:56:46.145Z,17.46
2018-05-08T05:57:46.176Z,17.68
2018-05-08T05:58:46.201Z,17.58
2018-05-08T05:59:46.233Z,17.65
2018-05-08T06:00:46.259Z,17.62
2018-05-08T06:01:46.282Z,17.63
2018-05-08T06:02:46.313Z,17.63
2018-05-08T06:03:46.340Z,17.70
2018-05-08T06:04:46.365Z,17.83
2018-05-08T06:05:46.389Z,17.79
2018-05-08T06:06:46.415Z,17.83
2018-05-08T06:07:46.451Z,17.86
2018-05-08T06:08:46.470Z,17.95
2018-05-08T06:09:46.502Z,17.98
2018-05-08T06:10:46.526Z,17.91
2018-05-08T06:11:46.556Z,17.91
2018-05-08T06:12:46.582Z,17.96
2018-05-08T06:13:46.607Z,17.94
2018-05-08T06:14:46.636Z,17.95
2018-05-08T06:15:46.660Z,18.01
2018-05-08T06:16:46.689Z,18.05
2018-05-08T06:17:46.719Z,18.05
2018-05-08T06:18:46.749Z,17.99
2018-05-08T06:19:46.771Z,17.99
2018-05-08T06:20:46.796Z,17.99
2018-05-08T06:21:46.827Z,17.98
2018-05-08T06:22:46.848Z,17.99
2018-05-08T06:23:46.882Z,18.09
2018-05-08T06:24:46.914Z,18.04
2018-05-08T06:25:46.934Z,18.05
2018-05-08T06:26:46.961Z,18.09
2018-05-08T06:27:46.986Z,18.02
2018-05-08T06:28:47.013Z,18.16
2018-05-08T06:29:47.045Z,18.16
2018-05-08T06:30:47.073Z,18.13
2018-05-08T06:31:47.129Z,18.19
2018-05-08T06:32:47.123Z,18.17
2018-05-08T06:33:47.157Z,18.31
2018-05-08T06:34:47.177Z,18.31
2018-05-08T06:35:47.208Z,18.34
2018-05-08T06:36:47.237Z,18.26
2018-05-08T06:37:47.258Z,18.36
2018-05-08T06:38:47.289Z,18.29
2018-05-08T06:39:47.317Z,18.34
2018-05-08T06:40:47.343Z,18.36
2018-05-08T06:41:47.372Z,18.34
2018-05-08T06:42:47.401Z,18.32
2018-05-08T06:43:47.428Z,18.44
2018-05-08T06:44:47.454Z,18.50
2018-05-08T06:45:47.479Z,18.50
2018-05-08T06:46:47.559Z,18.46
2018-05-08T06:47:47.537Z,18.53
2018-05-08T06:48:47.569Z,18.47
2018-05-08T06:49:47.594Z,18.47
2018-05-08T06:50:47.617Z,18.50
2018-05-08T06:51:47.659Z,18.64
2018-05-08T06:52:47.678Z,18.57
2018-05-08T06:53:47.702Z,18.66
2018-05-08T06:54:47.781Z,18.66
2018-05-08T06:55:47.759Z,18.74
2018-05-08T06:56:47.787Z,18.74
2018-05-08T06:57:47.814Z,18.78
2018-05-08T06:58:47.836Z,18.75
2018-05-08T06:59:47.867Z,18.86
2018-05-08T07:00:47.891Z,18.87
2018-05-08T07:01:47.926Z,18.91
2018-05-08T07:02:47.952Z,19.01
2018-05-08T07:03:47.981Z,19.09
2018-05-08T07:04:48.008Z,19.09
2018-05-08T07:05:48.039Z,19.07
2018-05-08T07:06:48.060Z,19.12
2018-05-08T07:07:48.091Z,19.23
2018-05-08T07:08:48.117Z,19.24
2018-05-08T07:09:48.154Z,19.23
2018-05-08T07:10:48.173Z,19.30
2018-05-08T07:11:48.201Z,19.24
2018-05-08T07:12:48.227Z,19.30
2018-05-08T07:13:48.255Z,19.32
2018-05-08T07:14:48.281Z,19.39
2018-05-08T07:15:48.402Z,19.42
2018-05-08T07:16:48.345Z,19.42
2018-05-08T07:17:48.365Z,19.46
2018-05-08T07:18:48.391Z,19.53
2018-05-08T07:19:48.430Z,19.53
2018-05-08T07:20:48.445Z,19.50
2018-05-08T07:21:48.476Z,19.52
2018-05-08T07:22:48.507Z,19.52
2018-05-08T07:23:48.532Z,19.61
2018-05-08T07:24:48.560Z,19.53
2018-05-08T07:25:48.585Z,19.64
2018-05-08T07:26:48.615Z,19.64
2018-05-08T07:27:48.649Z,19.64
2018-05-08T07:28:48.675Z,19.82
2018-05-08T07:29:48.701Z,19.78
2018-05-08T07:30:48.759Z,19.72
2018-05-08T07:31:48.756Z,19.79
2018-05-08T07:32:48.784Z,19.83
2018-05-08T07:33:48.814Z,19.86
2018-05-08T07:34:48.846Z,19.90
2018-05-08T07:35:48.868Z,19.83
2018-05-08T07:36:48.895Z,19.89
2018-05-08T07:37:48.926Z,19.94
2018-05-08T07:38:48.952Z,19.86
2018-05-08T07:39:48.989Z,19.98
2018-05-08T07:40:49.004Z,19.97
2018-05-08T07:41:49.035Z,20.04
2018-05-08T07:42:49.065Z,20.01
2018-05-08T07:43:49.105Z,20.00
2018-05-08T07:44:49.124Z,20.04
2018-05-08T07:45:49.148Z,20.10
2018-05-08T07:46:49.184Z,20.12
2018-05-08T07:47:49.210Z,20.19
2018-05-08T07:48:49.235Z,20.22
2018-05-08T07:49:49.270Z,20.19
2018-05-08T07:50:49.289Z,20.17
2018-05-08T07:51:49.385Z,20.27
2018-05-08T07:52:49.346Z,20.25
2018-05-08T07:53:49.369Z,20.23
2018-05-08T07:54:49.399Z,20.37
2018-05-08T07:55:49.423Z,20.41
2018-05-08T07:56:49.453Z,20.41
2018-05-08T07:57:49.484Z,20.51
2018-05-08T07:58:49.515Z,20.48
2018-05-08T07:59:49.544Z,20.51
2018-05-08T08:00:49.568Z,20.51
2018-05-08T08:01:49.603Z,20.53
2018-05-08T08:02:49.626Z,20.46
2018-05-08T08:03:49.651Z,20.60
2018-05-08T08:04:49.679Z,20.69
2018-05-08T08:05:49.714Z,20.66
2018-05-08T08:06:49.734Z,20.72
2018-05-08T08:07:49.761Z,20.73
2018-05-08T08:08:49.793Z,20.79
2018-05-08T08:09:49.826Z,20.81
2018-05-08T08:10:49.849Z,20.73
2018-05-08T08:11:49.877Z,20.82
2018-05-08T08:12:49.904Z,20.82
2018-05-08T08:13:49.938Z,20.91
2018-05-08T08:14:49.957Z,20.96
2018-05-08T08:15:49.985Z,20.96
2018-05-08T08:16:50.020Z,21.01
2018-05-08T08:17:50.048Z,20.96
2018-05-08T08:18:50.073Z,21.11
2018-05-08T08:19:50.108Z,21.09
2018-05-08T08:20:50.129Z,21.15
2018-05-08T08:21:50.157Z,21.21
2018-05-08T08:22:50.183Z,21.21
2018-05-08T08:23:50.228Z,21.31
2018-05-08T08:24:50.248Z,21.27
2018-05-08T08:25:50.273Z,21.27
2018-05-08T08:26:50.316Z,21.30
2018-05-08T08:27:50.332Z,21.28
2018-05-08T08:28:50.357Z,21.30
2018-05-08T08:29:50.467Z,21.31
2018-05-08T08:30:50.417Z,21.30
2018-05-08T08:31:50.443Z,21.36
2018-05-08T08:32:50.473Z,21.34
2018-05-08T08:33:50.499Z,21.36
2018-05-08T08:34:50.532Z,21.48
2018-05-08T08:35:50.553Z,21.51
2018-05-08T08:36:50.587Z,21.51
2018-05-08T08:37:50.612Z,21.63
2018-05-08T08:38:50.644Z,21.61
2018-05-08T08:39:50.671Z,21.58
2018-05-08T08:40:50.729Z,21.63
2018-05-08T08:41:50.727Z,21.73
2018-05-08T08:42:50.752Z,21.67
2018-05-08T08:43:50.784Z,21.66
2018-05-08T08:44:50.810Z,21.77
2018-05-08T08:45:50.837Z,21.73
2018-05-08T08:46:50.872Z,21.70
2018-05-08T08:47:50.909Z,21.70
2018-05-08T08:48:50.924Z,21.68
2018-05-08T08:49:50.953Z,21.83
2018-05-08T08:50:50.981Z,21.81
2018-05-08T08:51:51.011Z,21.90
2018-05-08T08:52:51.043Z,21.89
2018-05-08T08:53:51.073Z,21.89
2018-05-08T08:54:51.092Z,21.89
2018-05-08T08:55:51.129Z,21.89
2018-05-08T08:56:51.161Z,21.89
2018-05-08T08:57:51.180Z,21.90
2018-05-08T08:58:51.216Z,21.94
2018-05-08T08:59:51.240Z,22.01
2018-05-08T09:00:51.271Z,22.01
2018-05-08T09:01:51.298Z,22.02
2018-05-08T09:02:51.328Z,22.05
2018-05-08T09:03:51.364Z,22.06
2018-05-08T09:04:51.394Z,22.11
2018-05-08T09:05:51.410Z,22.11
2018-05-08T09:06:51.438Z,22.11
2018-05-08T09:07:51.469Z,22.14
2018-05-08T09:08:51.499Z,22.17
2018-05-08T09:09:51.530Z,22.14
2018-05-08T09:10:51.557Z,22.26
2018-05-08T09:11:51.582Z,22.21
2018-05-08T09:12:51.612Z,22.33
2018-05-08T09:13:51.640Z,22.33
2018-05-08T09:14:51.673Z,22.27
2018-05-08T09:15:51.704Z,22.35
2018-05-08T09:16:51.772Z,22.36
2018-05-08T09:17:51.751Z,22.38
2018-05-08T09:18:51.783Z,22.39
2018-05-08T09:19:51.881Z,22.48
2018-05-08T09:20:51.842Z,22.44
2018-05-08T09:21:51.866Z,22.51
2018-05-08T09:22:51.897Z,22.54
2018-05-08T09:23:51.927Z,22.56
2018-05-08T09:24:51.957Z,22.52
2018-05-08T09:25:51.985Z,22.72
2018-05-08T09:26:52.015Z,22.70
2018-05-08T09:27:52.040Z,22.64
2018-05-08T09:28:52.067Z,22.72
2018-05-08T09:29:52.102Z,22.69
2018-05-08T09:30:52.132Z,22.76
2018-05-08T09:31:52.160Z,22.76
2018-05-08T09:32:52.243Z,22.82
2018-05-08T09:33:52.220Z,22.85
2018-05-08T09:34:52.246Z,22.91
2018-05-08T09:35:52.271Z,22.97
2018-05-08T09:36:52.404Z,23.00
2018-05-08T09:37:52.335Z,22.94
2018-05-08T09:38:52.361Z,22.94
2018-05-08T09:39:52.399Z,22.96
2018-05-08T09:40:52.462Z,22.94
2018-05-08T09:41:52.448Z,23.01
2018-05-08T09:42:52.480Z,23.09
2018-05-08T09:43:52.512Z,23.09
2018-05-08T09:44:52.535Z,23.12
2018-05-08T09:45:52.561Z,23.03
2018-05-08T09:46:52.594Z,23.12
2018-05-08T09:47:52.623Z,23.25
2018-05-08T09:48:52.717Z,23.22
2018-05-08T09:49:52.676Z,23.21
2018-05-08T09:50:52.786Z,23.25
2018-05-08T09:51:52.740Z,23.31
2018-05-08T09:52:52.765Z,23.32
2018-05-08T09:53:52.794Z,23.47
2018-05-08T09:54:52.823Z,23.38
2018-05-08T09:55:52.850Z,23.42
2018-05-08T09:56:52.885Z,23.38
2018-05-08T09:57:52.913Z,23.45
2018-05-08T09:58:52.935Z,23.44
2018-05-08T09:59:52.965Z,23.29
2018-05-08T10:00:52.998Z,23.39
2018-05-08T10:01:53.030Z,23.34
2018-05-08T10:02:53.059Z,23.35
2018-05-08T10:03:53.094Z,23.42
2018-05-08T10:04:53.114Z,23.49
2018-05-08T10:05:53.144Z,23.45
2018-05-08T10:06:53.173Z,23.57
2018-05-08T10:07:53.200Z,23.53
2018-05-08T10:08:53.236Z,23.68
2018-05-08T10:09:53.260Z,23.63
2018-05-08T10:10:53.284Z,23.57
2018-05-08T10:11:53.323Z,23.71
2018-05-08T10:12:53.347Z,23.77
2018-05-08T10:13:53.380Z,23.77
2018-05-08T10:14:53.403Z,23.82
2018-05-08T10:15:53.447Z,23.87
2018-05-08T10:16:53.472Z,23.81
2018-05-08T10:17:53.493Z,23.87
2018-05-08T10:18:53.525Z,23.84
2018-05-08T10:19:53.557Z,23.81
2018-05-08T10:20:53.580Z,23.81
2018-05-08T10:21:53.611Z,23.75
2018-05-08T10:22:53.641Z,23.86
2018-05-08T10:23:53.677Z,23.90
2018-05-08T10:24:53.701Z,23.90
2018-05-08T10:25:53.733Z,24.00
2018-05-08T10:26:53.758Z,24.08
2018-05-08T10:27:53.785Z,24.15
2018-05-08T10:28:53.815Z,24.12
2018-05-08T10:29:53.855Z,24.08
2018-05-08T10:30:53.878Z,24.23
2018-05-08T10:31:53.907Z,24.26
2018-05-08T10:32:54.047Z,24.23
2018-05-08T10:33:53.969Z,24.42
2018-05-08T10:34:53.998Z,24.42
2018-05-08T10:35:54.023Z,24.42
2018-05-08T10:36:54.056Z,24.41
2018-05-08T10:37:54.080Z,24.42
2018-05-08T10:38:54.115Z,24.51
2018-05-08T10:39:54.142Z,24.60
2018-05-08T10:40:54.170Z,24.63
2018-05-08T10:41:54.204Z,24.68
2018-05-08T10:42:54.232Z,24.79
2018-05-08T10:43:54.258Z,24.84
2018-05-08T10:44:54.285Z,24.94
2018-05-08T10:45:54.313Z,25.07
2018-05-08T10:46:54.351Z,25.19
2018-05-08T10:47:54.373Z,25.17
2018-05-08T10:48:54.403Z,25.30
2018-05-08T10:49:54.438Z,25.27
2018-05-08T10:50:54.462Z,25.29
2018-05-08T10:51:54.497Z,25.38
2018-05-08T10:52:54.532Z,25.48
2018-05-08T10:53:54.554Z,25.61
2018-05-08T10:54:54.592Z,25.76
2018-05-08T10:55:54.624Z,25.94
2018-05-08T10:56:54.657Z,26.12
2018-05-08T10:57:54.683Z,26.35
2018-05-08T10:58:54.707Z,26.56
2018-05-08T10:59:54.743Z,26.72
2018-05-08T11:00:54.772Z,26.75
2018-05-08T11:01:54.808Z,27.06
2018-05-08T11:02:54.833Z,27.59
2018-05-08T11:03:54.863Z,28.08
2018-05-08T11:04:54.896Z,28.80
2018-05-08T11:05:54.930Z,29.66
2018-05-08T11:06:54.963Z,30.30
2018-05-08T11:07:54.995Z,30.94
2018-05-08T11:08:55.026Z,31.75
2018-05-08T11:09:55.062Z,32.43
2018-05-08T11:10:55.093Z,32.58
2018-05-08T11:11:55.132Z,33.44
2018-05-08T11:12:55.176Z,34.11
2018-05-08T11:13:55.200Z,33.94
2018-05-08T11:14:55.235Z,33.55
2018-05-08T11:15:55.270Z,34.12
2018-05-08T11:16:55.303Z,34.67
2018-05-08T11:17:55.335Z,34.80
2018-05-08T11:18:55.373Z,34.05
2018-05-08T11:19:55.410Z,34.23
2018-05-08T11:20:55.448Z,34.72
2018-05-08T11:21:55.487Z,34.73
2018-05-08T11:22:55.524Z,34.48
2018-05-08T11:23:55.556Z,33.79
2018-05-08T11:24:55.587Z,33.60
2018-05-08T11:25:55.629Z,34.50
2018-05-08T11:26:55.667Z,35.13
2018-05-08T11:27:55.702Z,35.54
2018-05-08T11:28:55.736Z,36.12
2018-05-08T11:29:55.772Z,36.55
2018-05-08T11:30:55.813Z,37.43
2018-05-08T11:31:55.852Z,37.09
2018-05-08T11:32:55.890Z,36.62
2018-05-08T11:33:55.929Z,36.06
2018-05-08T11:34:55.962Z,35.54
2018-05-08T11:35:56.008Z,35.95
2018-05-08T11:36:56.038Z,36.49
2018-05-08T11:37:56.077Z,36.94
2018-05-08T11:38:56.119Z,36.53
2018-05-08T11:39:56.153Z,37.30
2018-05-08T11:40:56.202Z,38.00
2018-05-08T11:41:56.226Z,37.88
2018-05-08T11:42:56.268Z,38.40
2018-05-08T11:43:56.307Z,38.19
2018-05-08T11:44:56.346Z,38.44
2018-05-08T11:45:56.384Z,38.50
2018-05-08T11:46:56.417Z,38.33
2018-05-08T11:47:56.457Z,37.99
2018-05-08T11:48:56.495Z,37.50
2018-05-08T11:49:56.542Z,38.37
2018-05-08T11:50:56.570Z,38.71
2018-05-08T11:51:56.611Z,38.37
2018-05-08T11:52:56.654Z,38.04
2018-05-08T11:53:56.691Z,37.78
2018-05-08T11:54:56.730Z,37.50
2018-05-08T11:55:56.775Z,36.99
2018-05-08T11:56:56.804Z,37.12
2018-05-08T11:57:56.850Z,37.33
2018-05-08T11:58:56.886Z,37.18
2018-05-08T11:59:56.928Z,37.27
2018-05-08T12:00:57.021Z,37.84
2018-05-08T12:01:57.004Z,38.93
2018-05-08T12:02:57.041Z,39.01
2018-05-08T12:03:57.091Z,38.25
2018-05-08T12:04:57.125Z,38.38
2018-05-08T12:05:57.166Z,38.97
2018-05-08T12:06:57.200Z,39.38
2018-05-08T12:07:57.245Z,39.96
2018-05-08T12:08:57.286Z,39.92
2018-05-08T12:09:57.320Z,40.31
2018-05-08T12:10:57.360Z,40.91
2018-05-08T12:11:57.399Z,39.91
2018-05-08T12:12:57.446Z,40.09
2018-05-08T12:13:57.475Z,40.42
2018-05-08T12:14:57.514Z,40.56
2018-05-08T12:15:57.563Z,41.13
2018-05-08T12:16:57.598Z,40.33
2018-05-08T12:17:57.645Z,39.27
2018-05-08T12:18:57.679Z,39.53
2018-05-08T12:19:57.719Z,39.41
2018-05-08T12:20:57.757Z,39.12
2018-05-08T12:21:57.805Z,39.13
2018-05-08T12:22:57.841Z,39.72
2018-05-08T12:23:57.888Z,39.35
2018-05-08T12:24:57.923Z,39.48
2018-05-08T12:25:57.962Z,39.14
2018-05-08T12:26:57.998Z,39.20
2018-05-08T12:27:58.046Z,39.96
2018-05-08T12:28:58.082Z,39.39
2018-05-08T12:29:58.125Z,39.47
2018-05-08T12:30:58.173Z,40.48
2018-05-08T12:31:58.204Z,40.64
2018-05-08T12:32:58.247Z,40.45
2018-05-08T12:33:58.285Z,41.00
2018-05-08T12:34:58.522Z,40.72
2018-05-08T12:35:58.376Z,40.72
2018-05-08T12:36:58.420Z,40.60
2018-05-08T12:37:58.450Z,40.48
2018-05-08T12:38:58.489Z,40.18
2018-05-08T12:39:58.535Z,40.07
2018-05-08T12:40:58.574Z,40.39
2018-05-08T12:41:58.633Z,41.32
2018-05-08T12:42:58.665Z,41.36
2018-05-08T12:43:58.700Z,40.95
2018-05-08T12:44:58.739Z,41.10
2018-05-08T12:45:58.802Z,40.90
2018-05-08T12:46:58.826Z,40.06
2018-05-08T12:47:58.868Z,39.68
2018-05-08T12:48:58.983Z,39.75
2018-05-08T12:49:58.956Z,40.16
2018-05-08T12:50:58.988Z,39.02
2018-05-08T12:51:59.036Z,39.70
2018-05-08T12:52:59.079Z,40.18